sensor_id;sensor_type;location;lat;lon;timestamp;pressure;altitude;pressure_sealevel;temperature;humidity
37200;BME280;23096;50.892;16.746;2023-05-09T00:00:13;100321.41;;;6.45;58.87
37200;BME280;23096;50.892;16.746;2023-05-09T00:02:39;100323.45;;;6.42;59.10
37200;BME280;23096;50.892;16.746;2023-05-09T00:05:05;100321.05;;;6.39;59.10
37200;BME280;23096;50.892;16.746;2023-05-09T00:07:34;100318.84;;;6.38;59.19
37200;BME280;23096;50.892;16.746;2023-05-09T00:09:59;100319.35;;;6.36;59.09
37200;BME280;23096;50.892;16.746;2023-05-09T00:12:26;100320.02;;;6.34;59.22
37200;BME280;23096;50.892;16.746;2023-05-09T00:14:53;100319.84;;;6.30;59.26
37200;BME280;23096;50.892;16.746;2023-05-09T00:17:23;100317.95;;;6.26;59.36
37200;BME280;23096;50.892;16.746;2023-05-09T00:19:50;100317.60;;;6.23;59.33
37200;BME280;23096;50.892;16.746;2023-05-09T00:22:18;100311.27;;;6.17;59.41
37200;BME280;23096;50.892;16.746;2023-05-09T00:24:49;100312.11;;;6.13;59.36
37200;BME280;23096;50.892;16.746;2023-05-09T00:27:14;100306.48;;;6.09;59.55
37200;BME280;23096;50.892;16.746;2023-05-09T00:29:41;100305.45;;;6.07;59.57
37200;BME280;23096;50.892;16.746;2023-05-09T00:32:07;100300.99;;;6.06;59.60
37200;BME280;23096;50.892;16.746;2023-05-09T00:34:32;100301.85;;;6.03;59.61
37200;BME280;23096;50.892;16.746;2023-05-09T00:36:58;100304.39;;;6.02;59.71
37200;BME280;23096;50.892;16.746;2023-05-09T00:39:24;100298.59;;;5.99;59.84
37200;BME280;23096;50.892;16.746;2023-05-09T00:41:50;100297.19;;;5.95;59.85
37200;BME280;23096;50.892;16.746;2023-05-09T00:44:16;100293.06;;;5.91;59.88
37200;BME280;23096;50.892;16.746;2023-05-09T00:46:42;100294.60;;;5.89;59.94
37200;BME280;23096;50.892;16.746;2023-05-09T00:49:08;100295.44;;;5.87;60.04
37200;BME280;23096;50.892;16.746;2023-05-09T00:51:35;100292.86;;;5.83;59.94
37200;BME280;23096;50.892;16.746;2023-05-09T00:54:01;100290.64;;;5.78;60.05
37200;BME280;23096;50.892;16.746;2023-05-09T00:56:26;100293.16;;;5.73;60.08
37200;BME280;23096;50.892;16.746;2023-05-09T00:58:53;100287.19;;;5.70;60.23
37200;BME280;23096;50.892;16.746;2023-05-09T01:01:19;100284.61;;;5.67;60.27
37200;BME280;23096;50.892;16.746;2023-05-09T01:03:46;100281.52;;;5.64;60.42
37200;BME280;23096;50.892;16.746;2023-05-09T01:08:46;100277.05;;;5.57;60.41
37200;BME280;23096;50.892;16.746;2023-05-09T01:11:31;100278.59;;;5.54;60.42
37200;BME280;23096;50.892;16.746;2023-05-09T01:22:28;100265.70;;;5.37;60.77
37200;BME280;23096;50.892;16.746;2023-05-09T01:25:26;100263.64;;;5.33;60.92
37200;BME280;23096;50.892;16.746;2023-05-09T01:28:18;100263.27;;;5.29;61.00
37200;BME280;23096;50.892;16.746;2023-05-09T01:30:50;100264.95;;;5.23;61.05
37200;BME280;23096;50.892;16.746;2023-05-09T01:33:19;100263.55;;;5.16;61.00
37200;BME280;23096;50.892;16.746;2023-05-09T01:35:50;100260.95;;;5.12;61.13
37200;BME280;23096;50.892;16.746;2023-05-09T01:38:21;100258.91;;;5.10;61.15
37200;BME280;23096;50.892;16.746;2023-05-09T01:40:51;100262.13;;;5.07;61.25
37200;BME280;23096;50.892;16.746;2023-05-09T01:43:18;100261.95;;;5.05;61.48
37200;BME280;23096;50.892;16.746;2023-05-09T01:45:47;100261.07;;;5.04;61.48
37200;BME280;23096;50.892;16.746;2023-05-09T01:48:13;100263.95;;;5.02;61.59
37200;BME280;23096;50.892;16.746;2023-05-09T01:50:42;100262.08;;;5.00;61.75
37200;BME280;23096;50.892;16.746;2023-05-09T01:53:10;100260.86;;;4.98;61.64
37200;BME280;23096;50.892;16.746;2023-05-09T01:55:38;100262.73;;;4.95;61.83
37200;BME280;23096;50.892;16.746;2023-05-09T22:52:44;99373.16;;;9.90;55.66
37200;BME280;23096;50.892;16.746;2023-05-09T22:55:09;99372.71;;;9.88;55.78
37200;BME280;23096;50.892;16.746;2023-05-09T22:57:35;99376.14;;;9.88;55.90
37200;BME280;23096;50.892;16.746;2023-05-09T23:00:01;99373.38;;;9.89;56.00
37200;BME280;23096;50.892;16.746;2023-05-09T23:02:27;99371.17;;;9.88;56.02
37200;BME280;23096;50.892;16.746;2023-05-09T23:04:53;99367.38;;;9.88;56.06
37200;BME280;23096;50.892;16.746;2023-05-09T23:07:18;99365.65;;;9.89;56.10
37200;BME280;23096;50.892;16.746;2023-05-09T23:09:44;99360.67;;;9.89;56.17
37200;BME280;23096;50.892;16.746;2023-05-09T23:12:09;99360.37;;;9.88;56.11
37200;BME280;23096;50.892;16.746;2023-05-09T23:14:35;99355.60;;;9.87;56.20
37200;BME280;23096;50.892;16.746;2023-05-09T23:17:00;99352.44;;;9.89;56.32
37200;BME280;23096;50.892;16.746;2023-05-09T23:19:26;99355.34;;;9.90;56.29
37200;BME280;23096;50.892;16.746;2023-05-09T23:21:52;99352.95;;;9.89;56.39
37200;BME280;23096;50.892;16.746;2023-05-09T23:24:17;99353.20;;;9.92;56.51
37200;BME280;23096;50.892;16.746;2023-05-09T23:26:43;99351.78;;;9.94;56.57
37200;BME280;23096;50.892;16.746;2023-05-09T23:29:09;99349.54;;;9.95;56.44
37200;BME280;23096;50.892;16.746;2023-05-09T23:31:34;99350.09;;;9.94;56.51
37200;BME280;23096;50.892;16.746;2023-05-09T23:34:00;99346.61;;;9.95;56.66
37200;BME280;23096;50.892;16.746;2023-05-09T23:36:26;99347.76;;;9.96;56.64
37200;BME280;23096;50.892;16.746;2023-05-09T23:38:52;99341.56;;;9.97;56.71
37200;BME280;23096;50.892;16.746;2023-05-09T23:41:18;99346.00;;;9.99;56.76
37200;BME280;23096;50.892;16.746;2023-05-09T23:43:44;99343.73;;;10.00;56.77
37200;BME280;23096;50.892;16.746;2023-05-09T23:46:09;99338.58;;;10.00;56.74
37200;BME280;23096;50.892;16.746;2023-05-09T23:48:35;99339.02;;;9.96;56.73
37200;BME280;23096;50.892;16.746;2023-05-09T23:51:01;99337.06;;;9.93;56.73
37200;BME280;23096;50.892;16.746;2023-05-09T23:53:26;99326.79;;;9.86;56.74
37200;BME280;23096;50.892;16.746;2023-05-09T23:55:52;99326.98;;;9.79;56.69
37200;BME280;23096;50.892;16.746;2023-05-09T23:58:17;99327.00;;;9.72;56.72
